createdAt,value
2023-05-03T00:01:32.811Z,14.10
2023-05-03T00:03:59.499Z,14.30
2023-05-03T00:06:26.116Z,13.80
2023-05-03T00:08:52.758Z,13.50
2023-05-03T00:11:19.380Z,13.70
2023-05-03T00:13:45.970Z,13.90
2023-05-03T00:16:12.610Z,14.00
2023-05-03T00:18:39.216Z,14.10
2023-05-03T00:21:05.829Z,14.10
2023-05-03T00:23:32.403Z,14.10
2023-05-03T00:25:59.039Z,14.30
2023-05-03T00:28:25.724Z,14.00
2023-05-03T00:30:52.480Z,13.80
2023-05-03T00:33:19.085Z,14.00
2023-05-03T00:35:45.978Z,14.20
2023-05-03T00:38:12.695Z,14.10
2023-05-03T00:40:39.297Z,14.30
2023-05-03T00:43:05.881Z,14.20
2023-05-03T00:45:32.459Z,14.30
2023-05-03T00:47:59.078Z,13.80
2023-05-03T00:50:25.697Z,14.10
2023-05-03T00:52:52.341Z,14.30
2023-05-03T00:55:18.926Z,14.20
2023-05-03T00:57:45.593Z,13.70
2023-05-03T01:00:12.221Z,13.70
2023-05-03T01:02:38.878Z,13.50
2023-05-03T01:05:05.496Z,13.60
2023-05-03T01:07:32.062Z,13.80
2023-05-03T01:09:58.700Z,13.80
2023-05-03T01:12:25.266Z,13.90
2023-05-03T01:14:51.948Z,13.30
2023-05-03T01:17:18.702Z,13.70
2023-05-03T01:19:45.305Z,14.00
2023-05-03T01:22:11.886Z,14.30
2023-05-03T01:24:38.458Z,13.90
2023-05-03T01:27:05.053Z,13.90
2023-05-03T01:29:31.646Z,14.10
2023-05-03T01:31:58.449Z,14.40
2023-05-03T01:34:25.100Z,14.40
2023-05-03T01:36:51.709Z,14.10
2023-05-03T01:39:18.315Z,14.20
2023-05-03T01:41:44.881Z,14.30
2023-05-03T01:44:11.470Z,14.40
2023-05-03T01:46:38.085Z,14.10
2023-05-03T01:49:04.657Z,13.60
2023-05-03T01:51:31.242Z,13.50
2023-05-03T01:53:57.851Z,13.80
2023-05-03T01:56:24.451Z,14.00
2023-05-03T01:58:51.017Z,14.30
2023-05-03T02:01:17.629Z,14.50
2023-05-03T02:03:44.257Z,14.20
2023-05-03T02:06:10.916Z,13.90
2023-05-03T02:08:37.498Z,14.10
2023-05-03T02:11:04.081Z,14.10
2023-05-03T02:13:30.733Z,14.00
2023-05-03T02:15:57.321Z,14.20
2023-05-03T02:18:23.918Z,13.90
2023-05-03T02:20:50.530Z,13.70
2023-05-03T02:23:17.116Z,13.60
2023-05-03T02:25:43.691Z,13.60
2023-05-03T02:28:10.250Z,13.80
2023-05-03T02:30:36.877Z,13.50
2023-05-03T02:33:03.585Z,13.60
2023-05-03T02:35:30.216Z,13.20
2023-05-03T02:37:56.775Z,13.40
2023-05-03T02:40:23.365Z,13.30
2023-05-03T02:42:49.944Z,13.50
2023-05-03T02:45:16.544Z,13.20
2023-05-03T02:47:43.185Z,13.00
2023-05-03T02:50:09.769Z,13.40
2023-05-03T02:52:36.368Z,13.30
2023-05-03T02:55:04.706Z,13.20
2023-05-03T02:57:31.294Z,13.20
2023-05-03T02:59:57.886Z,13.00
2023-05-03T03:02:24.529Z,13.10
2023-05-03T03:04:51.226Z,13.10
2023-05-03T03:07:17.837Z,13.50
2023-05-03T03:09:44.472Z,13.70
2023-05-03T03:12:11.140Z,13.90
2023-05-03T03:14:37.715Z,13.60
2023-05-03T03:17:04.325Z,13.40
2023-05-03T03:19:30.909Z,13.50
2023-05-03T03:21:57.647Z,13.70
2023-05-03T03:24:24.226Z,13.30
2023-05-03T03:26:50.818Z,13.40
2023-05-03T03:29:17.408Z,13.60
2023-05-03T03:31:44.135Z,13.90
2023-05-03T03:34:10.747Z,13.90
2023-05-03T03:36:37.355Z,13.90
2023-05-03T03:39:03.937Z,14.00
2023-05-03T03:41:30.494Z,13.90
2023-05-03T03:43:57.084Z,13.70
2023-05-03T03:46:23.730Z,13.50
2023-05-03T03:48:50.341Z,13.40
2023-05-03T03:51:16.900Z,13.10
2023-05-03T03:53:43.526Z,13.10
2023-05-03T03:56:10.104Z,13.10
2023-05-03T03:58:36.709Z,13.10
2023-05-03T04:01:03.290Z,12.80
2023-05-03T04:03:30.050Z,12.90
2023-05-03T04:05:56.694Z,12.70
2023-05-03T04:08:23.262Z,12.50
2023-05-03T04:10:49.861Z,12.50
2023-05-03T04:13:16.600Z,12.70
2023-05-03T04:15:43.167Z,12.80
2023-05-03T04:18:09.844Z,12.60
2023-05-03T04:20:36.493Z,12.60
2023-05-03T04:23:03.101Z,12.70
2023-05-03T04:25:29.674Z,13.10
2023-05-03T04:27:56.267Z,13.00
2023-05-03T04:30:22.840Z,13.10
2023-05-03T04:32:49.534Z,13.20
2023-05-03T04:35:16.136Z,13.50
2023-05-03T04:37:42.775Z,13.60
2023-05-03T04:40:09.404Z,13.70
2023-05-03T04:42:36.046Z,13.50
2023-05-03T04:45:02.733Z,13.10
2023-05-03T04:47:29.334Z,13.20
2023-05-03T04:49:55.897Z,13.50
2023-05-03T04:52:22.504Z,13.80
2023-05-03T04:54:49.063Z,13.80
2023-05-03T04:57:15.647Z,13.50
2023-05-03T04:59:42.267Z,13.60
2023-05-03T05:02:08.900Z,13.80
2023-05-03T05:04:35.657Z,14.10
2023-05-03T05:07:02.238Z,14.30
2023-05-03T05:09:28.841Z,14.00
2023-05-03T05:11:57.002Z,14.00
2023-05-03T05:14:23.912Z,13.80
2023-05-03T05:16:50.521Z,13.40
2023-05-03T05:19:17.144Z,13.40
2023-05-03T05:21:43.800Z,13.60
2023-05-03T05:24:10.366Z,13.80
2023-05-03T05:26:37.090Z,14.00
2023-05-03T05:29:03.685Z,13.70
2023-05-03T05:31:30.373Z,14.00
2023-05-03T05:33:57.139Z,14.20
2023-05-03T05:36:23.768Z,14.40
2023-05-03T05:38:50.330Z,14.20
2023-05-03T05:41:16.988Z,14.20
2023-05-03T05:43:43.570Z,14.00
2023-05-03T05:46:10.492Z,14.00
2023-05-03T05:48:37.058Z,13.90
2023-05-03T05:51:03.859Z,14.30
2023-05-03T05:53:30.466Z,14.40
2023-05-03T05:55:57.023Z,14.60
2023-05-03T05:58:23.620Z,14.50
2023-05-03T06:00:50.364Z,14.50
2023-05-03T06:03:16.952Z,14.50
2023-05-03T06:05:43.658Z,14.40
2023-05-03T06:08:10.243Z,14.30
2023-05-03T06:10:36.827Z,14.40
2023-05-03T06:13:03.540Z,14.40
2023-05-03T06:15:31.134Z,14.90
2023-05-03T06:17:57.801Z,14.80
2023-05-03T06:20:24.849Z,14.90
2023-05-03T06:22:51.411Z,15.00
2023-05-03T06:25:18.252Z,14.90
2023-05-03T06:27:45.070Z,14.90
2023-05-03T06:30:11.667Z,15.20
2023-05-03T06:32:38.424Z,15.20
2023-05-03T06:35:05.153Z,15.30
2023-05-03T06:37:31.757Z,15.60
2023-05-03T06:39:58.340Z,15.60
2023-05-03T06:42:24.903Z,15.50
2023-05-03T06:44:51.561Z,15.60
2023-05-03T06:47:18.176Z,16.00
2023-05-03T06:49:44.750Z,16.20
2023-05-03T06:52:11.896Z,16.50
2023-05-03T06:54:38.709Z,16.80
2023-05-03T06:57:05.314Z,16.70
2023-05-03T06:59:31.900Z,16.80
2023-05-03T07:01:58.542Z,17.00
2023-05-03T07:04:25.128Z,17.00
2023-05-03T07:06:56.348Z,17.00
2023-05-03T07:09:35.327Z,17.00
2023-05-03T07:12:08.453Z,17.30
2023-05-03T07:14:35.106Z,17.20
2023-05-03T07:17:01.688Z,17.30
2023-05-03T07:19:28.277Z,17.60
2023-05-03T07:21:54.841Z,17.30
2023-05-03T07:24:21.473Z,16.90
2023-05-03T07:26:49.205Z,16.80
2023-05-03T07:29:16.021Z,16.90
2023-05-03T07:31:42.586Z,17.30
2023-05-03T07:34:09.157Z,17.60
2023-05-03T07:36:35.744Z,17.60
2023-05-03T07:39:02.358Z,17.50
2023-05-03T07:41:29.177Z,17.50
2023-05-03T07:43:55.841Z,17.80
2023-05-03T07:46:22.520Z,17.90
2023-05-03T07:48:49.315Z,17.90
2023-05-03T07:51:15.933Z,17.70
2023-05-03T07:53:42.514Z,17.80
2023-05-03T07:56:09.100Z,17.90
2023-05-03T07:58:40.528Z,17.80
2023-05-03T08:01:07.643Z,17.70
2023-05-03T08:03:34.540Z,17.60
2023-05-03T08:06:01.280Z,17.50
2023-05-03T08:08:28.097Z,17.10
2023-05-03T08:10:54.742Z,17.30
2023-05-03T08:13:21.504Z,17.90
2023-05-03T08:15:48.107Z,18.30
2023-05-03T08:18:14.751Z,18.40
2023-05-03T08:20:41.372Z,18.30
2023-05-03T08:23:07.972Z,18.00
2023-05-03T08:25:35.044Z,18.30
2023-05-03T08:28:01.682Z,18.10
2023-05-03T08:30:28.312Z,18.10
2023-05-03T08:32:55.001Z,18.50
2023-05-03T08:35:21.713Z,18.90
2023-05-03T08:37:48.371Z,19.10
2023-05-03T08:40:14.959Z,18.90
2023-05-03T08:42:41.544Z,18.90
2023-05-03T08:45:08.129Z,18.80
2023-05-03T08:47:34.750Z,19.10
2023-05-03T08:50:01.515Z,19.30
2023-05-03T08:52:28.266Z,19.10
2023-05-03T08:54:54.851Z,18.90
2023-05-03T08:57:21.470Z,19.00
2023-05-03T08:59:48.029Z,18.80
2023-05-03T09:02:14.613Z,18.90
2023-05-03T09:04:41.232Z,18.80
2023-05-03T09:07:07.824Z,18.50
2023-05-03T09:09:34.385Z,18.50
2023-05-03T09:12:00.948Z,18.60
2023-05-03T09:14:27.609Z,18.40
2023-05-03T09:16:54.206Z,18.40
2023-05-03T09:19:20.847Z,18.70
2023-05-03T09:21:47.548Z,19.20
2023-05-03T09:24:14.167Z,19.10
2023-05-03T09:26:40.745Z,18.90
2023-05-03T09:29:07.342Z,19.10
2023-05-03T09:31:33.928Z,19.40
2023-05-03T09:34:00.574Z,19.30
2023-05-03T09:36:27.148Z,19.00
2023-05-03T09:38:53.871Z,19.00
2023-05-03T09:41:20.465Z,19.40
2023-05-03T09:43:47.087Z,19.60
2023-05-03T09:46:13.809Z,20.00
2023-05-03T09:48:40.548Z,19.80
2023-05-03T09:51:07.178Z,20.10
2023-05-03T09:53:33.743Z,20.30
2023-05-03T09:56:00.381Z,20.80
2023-05-03T09:58:26.972Z,20.70
2023-05-03T10:00:53.595Z,20.70
2023-05-03T10:03:20.251Z,20.10
2023-05-03T10:05:47.048Z,20.30
2023-05-03T10:08:14.038Z,19.80
2023-05-03T10:10:40.706Z,19.80
2023-05-03T10:13:07.392Z,19.70
2023-05-03T10:15:34.078Z,19.70
2023-05-03T10:18:00.797Z,19.70
2023-05-03T10:20:27.462Z,19.30
2023-05-03T10:22:54.057Z,18.80
2023-05-03T10:25:20.701Z,18.70
2023-05-03T10:27:47.304Z,18.90
2023-05-03T10:30:14.234Z,19.10
2023-05-03T10:32:40.951Z,19.50
2023-05-03T10:35:07.727Z,19.90
2023-05-03T10:37:34.737Z,20.10
2023-05-03T10:40:01.434Z,20.00
2023-05-03T10:42:28.235Z,19.90
2023-05-03T10:44:54.854Z,19.90
2023-05-03T10:47:21.688Z,19.90
2023-05-03T10:49:48.489Z,19.80
2023-05-03T10:52:15.255Z,20.20
2023-05-03T10:54:42.038Z,20.50
2023-05-03T10:57:08.649Z,20.30
2023-05-03T10:59:35.333Z,20.10
2023-05-03T11:02:02.043Z,20.00
2023-05-03T11:04:31.053Z,20.00
2023-05-03T11:06:58.553Z,19.80
2023-05-03T11:09:26.898Z,19.80
2023-05-03T11:11:53.734Z,19.90
2023-05-03T11:14:20.790Z,19.90
2023-05-03T11:16:48.276Z,20.10
2023-05-03T11:19:15.116Z,20.40
2023-05-03T11:21:41.882Z,20.40
2023-05-03T11:24:08.524Z,20.60
2023-05-03T11:26:35.424Z,19.90
2023-05-03T11:29:02.186Z,19.60
2023-05-03T11:31:28.942Z,19.70
2023-05-03T11:33:55.681Z,19.80
2023-05-03T11:36:22.680Z,19.70
2023-05-03T11:38:49.461Z,20.00
2023-05-03T11:41:16.145Z,19.90
2023-05-03T11:43:42.806Z,19.70
2023-05-03T11:46:09.634Z,19.80
2023-05-03T11:48:36.518Z,19.90
2023-05-03T11:51:03.188Z,19.60
2023-05-03T11:53:29.829Z,19.20
2023-05-03T11:55:57.081Z,18.40
2023-05-03T11:58:23.894Z,18.30
2023-05-03T12:00:51.036Z,18.40
2023-05-03T12:03:18.135Z,18.30
2023-05-03T12:05:45.303Z,18.30
2023-05-03T12:08:14.319Z,18.40
2023-05-03T12:10:42.907Z,18.10
2023-05-03T12:13:10.253Z,17.90
2023-05-03T12:15:37.510Z,18.10
2023-05-03T12:18:04.844Z,18.30
2023-05-03T12:25:33.665Z,18.70
2023-05-03T12:30:33.684Z,18.70
2023-05-03T12:33:04.130Z,18.50
2023-05-03T12:35:33.488Z,18.20
2023-05-03T12:38:02.833Z,18.10
2023-05-03T12:40:34.114Z,18.30
2023-05-03T12:43:01.864Z,18.40
2023-05-03T12:45:28.697Z,18.60
2023-05-03T12:47:55.496Z,18.70
2023-05-03T12:50:24.785Z,18.90
2023-05-03T12:52:53.104Z,18.70
2023-05-03T12:55:24.536Z,18.80
2023-05-03T12:58:13.828Z,18.90
2023-05-03T13:00:46.546Z,18.60
2023-05-03T13:03:32.787Z,18.40
2023-05-03T13:06:00.861Z,18.10
2023-05-03T13:08:34.138Z,17.50
2023-05-03T13:11:02.198Z,17.60
2023-05-03T13:13:29.074Z,18.00
2023-05-03T13:15:56.596Z,18.10
2023-05-03T13:18:23.351Z,18.30
2023-05-03T13:20:50.143Z,18.10
2023-05-03T13:23:16.957Z,18.10
2023-05-03T13:25:43.537Z,18.30
2023-05-03T13:28:10.241Z,17.70
2023-05-03T13:30:37.057Z,17.80
2023-05-03T13:33:03.910Z,17.90
2023-05-03T13:35:30.692Z,18.10
2023-05-03T13:37:57.425Z,18.30
2023-05-03T13:40:24.071Z,18.20
2023-05-03T13:42:50.978Z,18.20
2023-05-03T13:45:17.872Z,18.30
2023-05-03T13:50:14.039Z,18.40
2023-05-03T13:52:40.832Z,18.60
2023-05-03T13:55:07.756Z,18.60
2023-05-03T13:57:34.490Z,18.40
2023-05-03T14:00:01.447Z,18.40
2023-05-03T14:02:28.353Z,18.40
2023-05-03T14:04:55.095Z,18.40
2023-05-03T14:07:21.908Z,18.20
2023-05-03T14:09:48.739Z,18.50
2023-05-03T14:12:15.351Z,18.70
2023-05-03T14:14:42.311Z,18.50
2023-05-03T14:17:09.155Z,18.50
2023-05-03T14:19:35.984Z,18.70
2023-05-03T14:22:02.865Z,18.10
2023-05-03T14:24:29.707Z,18.20
2023-05-03T14:26:56.633Z,18.20
2023-05-03T14:29:23.293Z,18.40
2023-05-03T14:31:50.021Z,18.70
2023-05-03T14:34:16.847Z,18.90
2023-05-03T14:36:43.754Z,18.90
2023-05-03T14:39:10.697Z,18.70
2023-05-03T14:41:37.465Z,18.60
2023-05-03T14:44:04.154Z,18.70
2023-05-03T14:46:31.041Z,18.70
2023-05-03T14:48:57.738Z,18.80
2023-05-03T14:51:24.390Z,18.80
2023-05-03T14:53:51.320Z,18.80
2023-05-03T14:56:18.065Z,18.70
2023-05-03T14:58:44.775Z,18.60
2023-05-03T15:01:11.442Z,18.40
2023-05-03T15:03:38.530Z,18.40
2023-05-03T15:06:05.146Z,18.40
2023-05-03T15:08:31.730Z,18.00
2023-05-03T15:10:58.394Z,18.10
2023-05-03T15:13:25.210Z,17.90
2023-05-03T15:15:52.187Z,17.90
2023-05-03T15:18:19.355Z,17.90
2023-05-03T15:20:46.280Z,17.80
2023-05-03T15:23:13.013Z,18.10
2023-05-03T15:25:39.658Z,18.00
2023-05-03T15:28:08.528Z,17.90
2023-05-03T15:30:35.243Z,18.20
2023-05-03T15:33:02.097Z,18.50
2023-05-03T15:35:28.816Z,18.80
2023-05-03T15:37:55.434Z,18.90
2023-05-03T15:40:24.459Z,18.90
2023-05-03T15:42:52.818Z,18.60
2023-05-03T15:45:19.458Z,18.10
2023-05-03T15:47:46.176Z,17.90
2023-05-03T15:50:12.957Z,18.30
2023-05-03T15:52:39.737Z,18.40
2023-05-03T15:55:06.330Z,18.40
2023-05-03T15:57:32.944Z,18.00
2023-05-03T15:59:59.515Z,17.50
2023-05-03T16:02:26.075Z,17.50
2023-05-03T16:04:52.725Z,17.70
2023-05-03T16:07:19.380Z,18.10
2023-05-03T16:09:45.993Z,18.10
2023-05-03T16:12:12.593Z,18.00
2023-05-03T16:14:39.170Z,17.50
2023-05-03T16:17:05.750Z,17.40
2023-05-03T16:19:32.368Z,17.20
2023-05-03T16:21:58.966Z,17.70
2023-05-03T16:24:25.615Z,17.90
2023-05-03T16:26:52.227Z,18.20
2023-05-03T16:29:18.799Z,18.50
2023-05-03T16:31:45.359Z,18.60
2023-05-03T16:34:11.989Z,18.30
2023-05-03T16:36:39.889Z,18.40
2023-05-03T16:39:06.567Z,18.30
2023-05-03T16:41:33.167Z,18.40
2023-05-03T16:43:59.718Z,18.40
2023-05-03T16:46:26.402Z,18.70
2023-05-03T16:48:53.033Z,18.80
2023-05-03T16:51:19.647Z,18.80
2023-05-03T16:53:46.235Z,18.60
2023-05-03T16:56:12.828Z,18.70
2023-05-03T16:58:39.407Z,18.80
2023-05-03T17:01:06.048Z,18.80
2023-05-03T17:03:32.822Z,18.80
2023-05-03T17:06:00.316Z,18.70
2023-05-03T17:08:28.139Z,18.50
2023-05-03T17:10:54.741Z,18.40
2023-05-03T17:13:21.496Z,18.30
2023-05-03T17:15:48.204Z,18.50
2023-05-03T17:18:14.927Z,18.50
2023-05-03T17:20:41.584Z,18.50
2023-05-03T17:23:08.158Z,18.40
2023-05-03T17:25:34.758Z,17.80
2023-05-03T17:28:01.363Z,17.80
2023-05-03T17:30:27.920Z,17.60
2023-05-03T17:32:54.582Z,17.50
2023-05-03T17:35:21.464Z,17.60
2023-05-03T17:37:48.082Z,17.80
2023-05-03T17:40:14.658Z,17.70
2023-05-03T17:42:41.686Z,17.70
2023-05-03T17:45:08.297Z,17.70
2023-05-03T17:47:35.172Z,17.70
2023-05-03T17:50:02.085Z,17.50
2023-05-03T17:52:28.845Z,17.70
2023-05-03T17:54:55.429Z,17.80
2023-05-03T17:57:21.991Z,17.90
2023-05-03T17:59:48.666Z,17.90
2023-05-03T18:02:15.296Z,17.70
2023-05-03T18:04:41.877Z,17.60
2023-05-03T18:07:08.482Z,17.10
2023-05-03T18:09:35.061Z,16.70
2023-05-03T18:12:01.715Z,16.80
2023-05-03T18:14:28.303Z,17.20
2023-05-03T18:16:55.081Z,17.40
2023-05-03T18:19:21.896Z,17.50
2023-05-03T18:21:48.853Z,17.50
2023-05-03T18:24:15.592Z,17.50
2023-05-03T18:26:42.213Z,17.40
2023-05-03T18:29:08.846Z,17.20
2023-05-03T18:31:35.475Z,17.30
2023-05-03T18:34:02.334Z,17.40
2023-05-03T18:36:28.949Z,17.30
2023-05-03T18:38:55.513Z,16.90
2023-05-03T18:41:22.657Z,16.90
2023-05-03T18:43:49.246Z,16.90
2023-05-03T18:46:16.172Z,17.00
2023-05-03T18:48:42.804Z,17.10
2023-05-03T18:51:09.376Z,16.90
2023-05-03T18:53:35.968Z,17.00
2023-05-03T18:56:02.542Z,17.10
2023-05-03T18:58:29.157Z,17.20
2023-05-03T19:00:55.768Z,16.90
2023-05-03T19:03:22.373Z,17.00
2023-05-03T19:05:49.012Z,17.00
2023-05-03T19:08:15.596Z,16.90
2023-05-03T19:10:42.267Z,16.90
2023-05-03T19:13:08.951Z,16.80
2023-05-03T19:15:35.539Z,16.70
2023-05-03T19:18:02.201Z,16.80
2023-05-03T19:20:28.945Z,16.70
2023-05-03T19:22:55.537Z,16.60
2023-05-03T19:25:22.119Z,16.50
2023-05-03T19:27:48.736Z,16.70
2023-05-03T19:30:16.675Z,16.70
2023-05-03T19:32:43.364Z,16.60
2023-05-03T19:35:10.010Z,16.70
2023-05-03T19:37:36.616Z,16.30
2023-05-03T19:40:03.446Z,16.20
2023-05-03T19:42:30.203Z,16.30
2023-05-03T19:44:56.789Z,16.40
2023-05-03T19:47:23.587Z,16.40
2023-05-03T19:49:50.221Z,16.40
2023-05-03T19:52:16.820Z,16.40
2023-05-03T19:54:43.382Z,16.40
2023-05-03T19:57:09.938Z,16.40
2023-05-03T19:59:36.517Z,16.20
2023-05-03T20:02:03.368Z,16.30
2023-05-03T20:04:30.137Z,16.20
2023-05-03T20:06:56.736Z,15.90
2023-05-03T20:09:23.814Z,16.20
2023-05-03T20:11:50.437Z,16.30
2023-05-03T20:14:16.999Z,16.30
2023-05-03T20:16:43.611Z,16.30
2023-05-03T20:19:10.254Z,16.30
2023-05-03T20:21:37.894Z,16.20
2023-05-03T20:24:04.563Z,16.30
2023-05-03T20:26:31.154Z,16.40
2023-05-03T20:28:57.778Z,16.40
2023-05-03T20:31:24.435Z,16.30
2023-05-03T20:33:51.084Z,16.40
2023-05-03T20:36:17.872Z,16.30
2023-05-03T20:38:44.422Z,16.10
2023-05-03T20:41:11.052Z,16.20
2023-05-03T20:43:37.650Z,16.20
2023-05-03T20:46:04.289Z,16.30
2023-05-03T20:48:30.961Z,16.30
2023-05-03T20:50:57.604Z,16.20
2023-05-03T20:53:24.208Z,16.00
2023-05-03T20:55:50.893Z,16.10
2023-05-03T20:58:17.491Z,16.10
2023-05-03T21:00:44.082Z,16.00
2023-05-03T21:03:10.714Z,15.60
2023-05-03T21:05:37.390Z,15.20
2023-05-03T21:08:03.983Z,15.00
2023-05-03T21:10:30.615Z,14.80
2023-05-03T21:12:57.240Z,14.70
2023-05-03T21:15:23.932Z,14.80
2023-05-03T21:17:50.550Z,15.30
2023-05-03T21:20:17.151Z,15.60
2023-05-03T21:22:43.831Z,15.30
2023-05-03T21:25:10.440Z,15.30
2023-05-03T21:27:37.061Z,15.40
2023-05-03T21:30:03.916Z,15.20
2023-05-03T21:32:30.721Z,15.40
2023-05-03T21:34:57.318Z,15.20
2023-05-03T21:37:24.004Z,15.10
2023-05-03T21:40:01.023Z,14.90
2023-05-03T21:42:28.828Z,15.30
2023-05-03T21:44:55.411Z,15.40
2023-05-03T21:47:22.918Z,15.20
2023-05-03T21:49:49.482Z,15.20
2023-05-03T21:52:16.074Z,15.40
2023-05-03T21:54:42.646Z,15.10
2023-05-03T21:57:09.222Z,15.00
2023-05-03T21:59:35.831Z,15.10
2023-05-03T22:02:02.690Z,15.30
2023-05-03T22:04:29.414Z,15.30
2023-05-03T22:06:55.996Z,14.90
2023-05-03T22:09:22.615Z,15.10
2023-05-03T22:11:49.275Z,15.30
2023-05-03T22:14:17.223Z,15.30
2023-05-03T22:16:43.826Z,15.20
2023-05-03T22:19:10.741Z,15.10
2023-05-03T22:21:37.285Z,15.20
2023-05-03T22:24:06.408Z,15.30
2023-05-03T22:26:33.057Z,15.30
2023-05-03T22:28:59.653Z,15.40
2023-05-03T22:31:26.268Z,14.80
2023-05-03T22:33:53.089Z,14.50
2023-05-03T22:36:19.724Z,14.60
2023-05-03T22:38:46.356Z,14.30
2023-05-03T22:41:12.993Z,14.70
2023-05-03T22:43:39.573Z,15.00
2023-05-03T22:46:06.176Z,14.90
2023-05-03T22:48:32.800Z,14.70
2023-05-03T22:50:59.364Z,14.80
2023-05-03T22:53:25.984Z,14.40
2023-05-03T22:55:52.546Z,14.70
2023-05-03T22:58:19.213Z,14.70
2023-05-03T23:00:45.853Z,14.80
2023-05-03T23:03:12.577Z,14.90
2023-05-03T23:05:39.352Z,14.80
2023-05-03T23:08:05.940Z,14.70
2023-05-03T23:10:32.517Z,14.80
2023-05-03T23:12:59.199Z,14.90
2023-05-03T23:15:25.847Z,15.00
2023-05-03T23:17:52.702Z,15.00
2023-05-03T23:20:19.369Z,14.90
2023-05-03T23:22:46.122Z,14.60
2023-05-03T23:25:12.685Z,14.50
2023-05-03T23:27:39.299Z,14.30
2023-05-03T23:30:06.386Z,14.20
2023-05-03T23:32:33.739Z,14.60
2023-05-03T23:35:00.838Z,14.60
2023-05-03T23:37:27.430Z,14.50
2023-05-03T23:39:54.035Z,14.30
2023-05-03T23:42:20.608Z,14.50
2023-05-03T23:44:55.223Z,14.20
2023-05-03T23:47:22.516Z,13.80
2023-05-03T23:49:49.094Z,14.10
2023-05-03T23:52:15.678Z,14.10
2023-05-03T23:54:43.472Z,14.30
2023-05-03T23:57:10.122Z,14.20
2023-05-03T23:59:36.680Z,14.40
